Time;durP1;ratioP1;P1;durP2;ratioP2;P2;SDS_P1;SDS_P2;PMS_P1;PMS_P2;Temp;Humidity;BMP_temperature;BMP_pressure;BME280_temperature;BME280_humidity;BME280_pressure;Samples;Min_cycle;Max_cycle;Signal;HPM_P1;HPM_P2
2021/06/03 00:06:33;;;;;;;1.63;1.08;;;19.90;65.40;;;;;;21128035;28;20369;-83
2021/06/03 00:16:35;;;;;;;1.40;0.90;;;19.90;65.50;;;;;;21142578;28;20040;-83
2021/06/03 00:26:37;;;;;;;1.05;0.70;;;19.90;65.50;;;;;;21138064;28;20070;-82
2021/06/03 00:36:38;;;;;;;1.80;1.08;;;19.80;65.50;;;;;;21141898;28;20077;-84
2021/06/03 00:46:39;;;;;;;1.40;1.00;;;19.80;65.50;;;;;;21161562;28;20043;-82
2021/06/03 00:56:41;;;;;;;1.50;0.90;;;19.80;65.40;;;;;;21121210;28;20315;-82
2021/06/03 01:06:45;;;;;;;1.73;1.23;;;19.80;65.40;;;;;;21117236;28;20079;-83
2021/06/03 01:16:46;;;;;;;1.45;1.15;;;19.80;65.50;;;;;;21123404;28;20039;-83
2021/06/03 01:26:47;;;;;;;1.42;1.10;;;19.80;65.40;;;;;;21143200;28;20039;-84
2021/06/03 01:36:48;;;;;;;1.63;1.02;;;19.70;65.40;;;;;;21131438;28;20027;-82
2021/06/03 01:46:50;;;;;;;1.80;1.10;;;19.70;65.40;;;;;;21126363;28;20047;-83
2021/06/03 01:56:53;;;;;;;1.48;1.05;;;19.70;65.50;;;;;;21128404;28;20063;-82
2021/06/03 02:06:58;;;;;;;0.97;0.73;;;19.70;65.50;;;;;;21139104;28;20051;-82
2021/06/03 02:17:05;;;;;;;1.33;1.08;;;19.70;65.60;;;;;;21143543;28;20085;-83
2021/06/03 02:27:15;;;;;;;1.50;1.10;;;19.70;65.60;;;;;;21131399;28;20067;-85
2021/06/03 02:37:16;;;;;;;1.10;0.88;;;19.70;65.60;;;;;;21139798;28;20473;-84
2021/06/03 02:47:20;;;;;;;1.85;1.13;;;19.70;66.30;;;;;;21110152;28;20043;-83
2021/06/03 02:57:22;;;;;;;1.20;1.00;;;19.60;65.70;;;;;;21125258;28;20043;-83
2021/06/03 03:07:24;;;;;;;1.48;1.10;;;19.70;65.80;;;;;;21123049;28;20046;-85
2021/06/03 03:17:25;;;;;;;1.10;0.90;;;19.70;65.80;;;;;;21110691;28;20039;-83
2021/06/03 03:27:27;;;;;;;1.83;1.05;;;19.70;65.80;;;;;;21123430;28;20047;-83
2021/06/03 03:37:28;;;;;;;1.38;1.10;;;19.60;65.80;;;;;;21140534;28;20397;-84
2021/06/03 03:47:30;;;;;;;1.35;1.00;;;19.70;65.80;;;;;;21135262;28;20036;-83
2021/06/03 03:57:34;;;;;;;1.85;1.40;;;19.60;65.70;;;;;;21134406;28;20138;-83
2021/06/03 04:07:38;;;;;;;1.52;1.00;;;19.60;65.70;;;;;;21154244;28;20584;-85
2021/06/03 04:17:42;;;;;;;1.50;0.98;;;19.60;65.80;;;;;;21138252;28;20047;-83
2021/06/03 04:27:45;;;;;;;1.63;1.48;;;19.60;65.70;;;;;;21158143;28;20035;-83
2021/06/03 04:37:47;;;;;;;2.40;0.90;;;19.60;65.80;;;;;;21137143;28;20032;-85
2021/06/03 04:47:49;;;;;;;1.83;1.23;;;19.60;65.70;;;;;;21148631;28;20092;-84
2021/06/03 04:57:50;;;;;;;1.13;0.75;;;19.60;65.70;;;;;;21151901;28;20074;-84
2021/06/03 05:07:52;;;;;;;1.15;0.95;;;19.60;65.70;;;;;;21143148;28;20036;-84
2021/06/03 05:17:54;;;;;;;1.27;1.00;;;19.60;65.80;;;;;;21120087;28;20062;-85
2021/06/03 05:27:55;;;;;;;1.73;1.20;;;19.60;65.80;;;;;;21116014;28;20064;-85
2021/06/03 05:37:58;;;;;;;1.50;1.17;;;19.60;65.80;;;;;;21092054;28;20039;-83
2021/06/03 05:48:01;;;;;;;1.33;0.88;;;19.60;65.80;;;;;;21086456;28;20122;-84
2021/06/03 05:58:03;;;;;;;1.00;0.90;;;19.60;65.80;;;;;;21134133;28;20481;-84
2021/06/03 06:08:09;;;;;;;1.20;1.00;;;19.60;65.80;;;;;;21132079;28;20139;-85
2021/06/03 06:18:11;;;;;;;1.92;1.08;;;19.60;65.80;;;;;;21132519;28;20443;-84
2021/06/03 06:28:13;;;;;;;1.33;0.95;;;19.70;65.90;;;;;;21147506;28;20031;-84
2021/06/03 06:38:20;;;;;;;1.70;1.08;;;19.80;65.90;;;;;;21117002;28;20032;-84
2021/06/03 06:48:22;;;;;;;1.52;1.30;;;19.70;65.80;;;;;;21146115;28;20040;-79
2021/06/03 06:58:22;;;;;;;1.35;0.98;;;19.80;65.90;;;;;;21094095;28;20043;-79
2021/06/03 07:08:26;;;;;;;0.90;0.77;;;19.80;65.80;;;;;;21143637;28;20054;-79
2021/06/03 07:18:27;;;;;;;1.50;1.13;;;19.80;65.70;;;;;;21133843;28;20051;-80
2021/06/03 07:28:29;;;;;;;1.42;1.20;;;19.80;65.60;;;;;;21133714;28;20123;-79
2021/06/03 07:38:35;;;;;;;1.60;1.05;;;19.90;65.60;;;;;;21130672;28;20031;-78
2021/06/03 07:48:37;;;;;;;1.90;1.48;;;19.90;65.50;;;;;;21131548;28;20043;-75
2021/06/03 07:58:39;;;;;;;1.42;0.95;;;19.90;65.50;;;;;;21058304;28;20050;-80
2021/06/03 08:08:41;;;;;;;1.52;1.23;;;19.90;65.40;;;;;;21144214;28;20081;-80
2021/06/03 08:18:42;;;;;;;1.63;1.23;;;20.00;65.40;;;;;;21091079;28;20035;-80
2021/06/03 08:28:51;;;;;;;1.35;1.25;;;20.00;65.40;;;;;;21109956;28;20720;-81
2021/06/03 08:38:56;;;;;;;1.35;1.10;;;20.00;65.40;;;;;;21088048;28;20039;-79
2021/06/03 08:49:01;;;;;;;2.97;1.00;;;20.00;65.40;;;;;;21134817;28;20039;-83
2021/06/03 08:59:08;;;;;;;1.58;1.35;;;20.10;65.40;;;;;;21112909;28;20051;-83
2021/06/03 09:09:14;;;;;;;1.65;1.20;;;20.20;65.40;;;;;;21419936;22;20127;-86
2021/06/03 09:19:16;;;;;;;2.15;1.17;;;20.10;65.40;;;;;;20972978;28;20033;-89
2021/06/03 09:29:33;;;;;;;1.10;1.00;;;20.10;65.30;;;;;;20981651;28;20501;-81
2021/06/03 09:39:44;;;;;;;1.85;1.25;;;20.20;65.40;;;;;;20910535;28;20052;-80
2021/06/03 09:49:57;;;;;;;1.67;0.93;;;20.10;65.30;;;;;;20946689;28;20036;-72
2021/06/03 10:00:19;;;;;;;2.05;1.38;;;20.10;65.30;;;;;;20895026;28;20056;-79
2021/06/03 10:10:21;;;;;;;2.53;1.48;;;20.20;65.30;;;;;;20951967;28;20394;-78
2021/06/03 10:20:37;;;;;;;2.15;1.67;;;20.20;65.30;;;;;;20994815;28;20033;-79
2021/06/03 10:30:49;;;;;;;1.33;1.10;;;20.20;65.30;;;;;;20977595;28;20069;-80
2021/06/03 10:40:58;;;;;;;2.15;1.20;;;20.30;65.30;;;;;;20978247;28;20290;-79
2021/06/03 10:51:09;;;;;;;1.73;1.00;;;20.30;65.40;;;;;;20980342;28;20386;-78
2021/06/03 11:01:31;;;;;;;1.30;1.10;;;20.40;65.50;;;;;;20959129;28;20082;-82
2021/06/03 11:11:34;;;;;;;2.70;1.08;;;20.30;65.50;;;;;;20970654;28;20389;-84
2021/06/03 11:21:35;;;;;;;1.48;1.25;;;20.30;65.50;;;;;;20986473;28;20067;-83
2021/06/03 11:31:38;;;;;;;1.90;1.35;;;20.30;65.60;;;;;;20999314;28;20043;-86
2021/06/03 11:41:40;;;;;;;2.03;1.33;;;20.30;65.60;;;;;;21003234;28;20127;-85
2021/06/03 11:52:11;;;;;;;3.58;1.33;;;20.40;65.70;;;;;;20967191;28;20041;-81
2021/06/03 12:02:37;;;;;;;1.98;1.30;;;20.40;65.70;;;;;;21004291;28;20039;-76
2021/06/03 12:12:38;;;;;;;2.87;1.30;;;20.40;65.70;;;;;;20957964;28;20059;-79
2021/06/03 12:22:40;;;;;;;2.40;1.55;;;20.40;65.70;;;;;;20969778;28;20040;-77
2021/06/03 12:33:00;;;;;;;2.38;1.70;;;20.40;65.70;;;;;;20934917;28;20067;-77
2021/06/03 12:43:12;;;;;;;3.72;1.70;;;20.50;65.80;;;;;;20974937;28;20040;-73
2021/06/03 12:53:15;;;;;;;2.15;1.20;;;20.50;65.70;;;;;;20942647;28;20032;-75
2021/06/03 13:03:25;;;;;;;3.45;1.40;;;20.50;65.70;;;;;;20951380;28;20524;-75
2021/06/03 13:13:27;;;;;;;1.70;1.30;;;20.50;65.70;;;;;;20972225;28;20037;-78
2021/06/03 13:23:28;;;;;;;3.80;1.70;;;20.60;65.70;;;;;;20954717;28;20055;-78
2021/06/03 13:33:30;;;;;;;5.75;1.63;;;20.70;65.70;;;;;;20944110;28;20322;-76
2021/06/03 13:43:34;;;;;;;2.13;1.30;;;20.60;65.70;;;;;;20953300;28;20463;-77
2021/06/03 13:53:39;;;;;;;2.90;1.27;;;20.70;65.80;;;;;;20936669;28;20029;-76
2021/06/03 14:04:06;;;;;;;2.72;1.20;;;20.70;65.70;;;;;;20955950;28;20055;-75
2021/06/03 14:14:19;;;;;;;1.73;1.30;;;20.70;65.70;;;;;;20986782;28;20454;-76
2021/06/03 14:24:22;;;;;;;2.28;1.10;;;20.80;65.80;;;;;;20953524;28;20635;-76
2021/06/03 14:34:34;;;;;;;1.83;1.20;;;20.80;65.70;;;;;;20936365;28;20383;-77
2021/06/03 14:44:50;;;;;;;3.58;1.60;;;20.80;65.70;;;;;;20969983;28;20093;-77
2021/06/03 14:54:50;;;;;;;4.72;1.85;;;20.80;65.70;;;;;;20952401;28;20089;-76
2021/06/03 15:04:54;;;;;;;5.72;1.98;;;20.80;65.80;;;;;;20968481;28;20043;-76
2021/06/03 15:14:55;;;;;;;2.10;1.10;;;20.80;65.80;;;;;;20967527;28;20072;-76
2021/06/03 15:24:56;;;;;;;2.88;1.60;;;20.90;65.90;;;;;;20911263;28;20057;-74
2021/06/03 15:35:00;;;;;;;5.03;1.55;;;20.90;65.80;;;;;;20909511;28;20069;-74
2021/06/03 15:45:01;;;;;;;3.33;1.60;;;21.00;65.80;;;;;;20955208;28;20490;-73
2021/06/03 15:55:01;;;;;;;2.65;1.38;;;21.10;65.80;;;;;;20939427;28;20287;-74
2021/06/03 16:05:05;;;;;;;2.28;1.40;;;21.20;65.70;;;;;;20911363;28;20086;-73
2021/06/03 16:15:12;;;;;;;2.33;1.40;;;21.20;65.60;;;;;;20942995;28;20040;-78
2021/06/03 16:25:13;;;;;;;1.90;1.30;;;21.30;65.60;;;;;;20972906;28;20043;-78
2021/06/03 16:35:19;;;;;;;6.95;1.55;;;21.30;65.60;;;;;;20928325;28;20032;-73
2021/06/03 16:45:27;;;;;;;2.97;1.70;;;21.30;66.10;;;;;;21064649;28;20045;-77
2021/06/03 16:55:29;;;;;;;9.93;2.10;;;21.20;65.30;;;;;;20946023;28;20131;-75
2021/06/03 17:05:31;;;;;;;4.30;1.60;;;21.20;65.20;;;;;;20976943;28;20050;-80
2021/06/03 17:15:33;;;;;;;1.92;1.23;;;21.30;65.00;;;;;;20965055;28;20036;-78
2021/06/03 17:25:35;;;;;;;2.28;1.33;;;21.20;64.40;;;;;;20882308;28;20036;-76
2021/06/03 17:35:37;;;;;;;3.03;1.35;;;21.00;64.20;;;;;;20913375;28;20095;-78
2021/06/03 17:45:39;;;;;;;2.17;1.35;;;21.00;64.20;;;;;;20899329;28;20094;-79
2021/06/03 17:55:46;;;;;;;1.88;1.52;;;20.90;64.20;;;;;;20956213;28;20112;-79
2021/06/03 18:05:48;;;;;;;3.17;1.15;;;20.90;64.10;;;;;;20973232;28;20067;-78
2021/06/03 18:15:55;;;;;;;4.05;1.27;;;20.90;64.10;;;;;;20987327;28;20131;-79
2021/06/03 18:25:59;;;;;;;2.15;1.40;;;20.90;64.30;;;;;;20973518;28;20044;-79
2021/06/03 18:36:07;;;;;;;3.70;1.58;;;21.00;64.50;;;;;;20961908;28;20048;-79
2021/06/03 18:46:08;;;;;;;1.92;1.38;;;20.90;64.60;;;;;;20929127;28;20518;-77
2021/06/03 18:56:18;;;;;;;2.33;1.60;;;20.90;65.70;;;;;;20923168;28;20024;-77
2021/06/03 19:06:23;;;;;;;4.05;1.02;;;20.90;65.10;;;;;;20977566;28;20098;-79
2021/06/03 19:16:24;;;;;;;2.13;1.30;;;20.90;65.20;;;;;;20938466;28;20079;-77
2021/06/03 19:26:25;;;;;;;1.73;1.07;;;20.90;65.20;;;;;;20965237;28;20076;-80
2021/06/03 19:36:27;;;;;;;2.25;1.23;;;20.80;65.10;;;;;;20932472;28;20284;-78
2021/06/03 19:46:30;;;;;;;1.83;1.17;;;20.80;65.20;;;;;;20897947;28;20055;-77
2021/06/03 19:56:31;;;;;;;1.52;1.13;;;20.80;65.30;;;;;;20880339;28;20407;-78
2021/06/03 20:06:32;;;;;;;1.88;1.00;;;20.80;65.40;;;;;;20897011;28;20086;-79
2021/06/03 20:16:34;;;;;;;1.70;1.15;;;20.80;65.40;;;;;;20894850;28;20132;-78
2021/06/03 20:26:36;;;;;;;1.35;0.85;;;20.80;65.50;;;;;;20894200;28;20179;-78
2021/06/03 20:36:40;;;;;;;1.25;1.15;;;20.80;65.50;;;;;;20844587;28;20035;-77
2021/06/03 20:46:48;;;;;;;2.10;1.35;;;20.80;65.70;;;;;;20913856;28;20045;-77
2021/06/03 20:56:49;;;;;;;3.03;1.10;;;20.70;65.70;;;;;;20926022;28;20033;-78
2021/06/03 21:06:50;;;;;;;1.88;1.00;;;20.70;65.90;;;;;;20943071;28;20049;-78
2021/06/03 21:16:51;;;;;;;2.08;1.35;;;20.70;66.10;;;;;;20974444;28;20043;-78
2021/06/03 21:26:54;;;;;;;1.23;1.05;;;20.70;66.20;;;;;;20924040;28;20066;-78
2021/06/03 21:36:56;;;;;;;1.00;0.90;;;20.70;66.40;;;;;;20941218;28;20040;-77
2021/06/03 21:46:57;;;;;;;1.35;1.00;;;20.70;66.60;;;;;;20972283;28;20405;-77
2021/06/03 21:57:03;;;;;;;2.22;1.23;;;20.70;66.70;;;;;;20955873;28;20043;-77
2021/06/03 22:07:05;;;;;;;;;;;20.70;66.80;;;;;;20972116;28;20120;-77
2021/06/03 22:17:08;;;;;;;1.20;1.10;;;20.70;66.90;;;;;;20956300;28;19954;-77
2021/06/03 22:27:09;;;;;;;1.50;1.20;;;20.60;66.90;;;;;;20970696;28;20178;-77
2021/06/03 22:37:12;;;;;;;1.70;1.02;;;20.80;67.10;;;;;;20977744;28;20060;-79
2021/06/03 22:47:17;;;;;;;2.28;1.27;;;20.60;67.10;;;;;;20970454;28;20040;-77
2021/06/03 22:57:18;;;;;;;1.63;1.15;;;20.60;67.20;;;;;;20985649;28;20139;-78
2021/06/03 23:07:24;;;;;;;2.35;1.20;;;20.60;67.30;;;;;;20934765;28;20076;-77
2021/06/03 23:17:26;;;;;;;0.93;0.85;;;20.60;67.20;;;;;;20968434;28;20044;-78
2021/06/03 23:27:29;;;;;;;1.73;1.10;;;20.60;67.30;;;;;;20934040;28;20079;-76
2021/06/03 23:37:29;;;;;;;1.73;1.38;;;20.60;67.40;;;;;;20949751;28;20044;-77
2021/06/03 23:47:30;;;;;;;1.10;0.90;;;20.60;67.50;;;;;;20981006;28;20071;-79
2021/06/03 23:57:34;;;;;;;1.85;1.27;;;20.60;67.50;;;;;;20948102;28;20622;-77
